Time;durP1;ratioP1;P1;durP2;ratioP2;P2;SDS_P1;SDS_P2;PMS_P1;PMS_P2;Temp;Humidity;BMP_temperature;BMP_pressure;BME280_temperature;BME280_humidity;BME280_pressure;Samples;Min_cycle;Max_cycle;Signal;HPM_P1;HPM_P2
2023/10/06 00:01:48;;;;;;;20.00;12.53;;;5.70;99.90;;;;;;5074979;28;20204;-69
2023/10/06 00:04:16;;;;;;;21.40;12.87;;;5.70;99.90;;;;;;5074981;28;20555;-68
2023/10/06 00:06:45;;;;;;;21.97;13.40;;;5.70;99.90;;;;;;5074914;28;20672;-68
2023/10/06 00:09:25;;;;;;;23.17;14.57;;;5.70;99.90;;;;;;5075041;28;20250;-68
2023/10/06 00:11:54;;;;;;;20.70;13.20;;;5.60;99.90;;;;;;5074699;28;20288;-68
2023/10/06 00:14:29;;;;;;;18.73;11.97;;;5.50;99.90;;;;;;5074689;28;20208;-68
2023/10/06 00:16:59;;;;;;;20.83;12.83;;;5.40;99.90;;;;;;5074912;28;20229;-69
2023/10/06 00:19:31;;;;;;;22.50;13.40;;;5.30;99.90;;;;;;5074759;28;20212;-68
2023/10/06 00:22:08;;;;;;;21.33;13.27;;;5.20;99.90;;;;;;5074731;28;20228;-68
2023/10/06 00:24:37;;;;;;;18.03;12.40;;;5.20;99.90;;;;;;5074661;28;20208;-69
2023/10/06 00:27:10;;;;;;;19.53;13.23;;;5.20;99.90;;;;;;5074755;28;20193;-69
2023/10/06 00:29:37;;;;;;;17.97;12.07;;;5.20;99.90;;;;;;5074497;28;20201;-68
2023/10/06 00:32:21;;;;;;;16.17;11.93;;;5.20;99.90;;;;;;5074471;28;20664;-69
2023/10/06 00:34:48;;;;;;;17.30;12.77;;;5.20;99.90;;;;;;5074547;28;20200;-69
2023/10/06 00:37:15;;;;;;;16.53;11.40;;;5.20;99.90;;;;;;5074232;28;20227;-69
2023/10/06 00:39:43;;;;;;;18.57;12.07;;;5.10;99.90;;;;;;5074515;28;20207;-69
2023/10/06 00:42:15;;;;;;;18.37;12.40;;;5.10;99.90;;;;;;5074453;28;20316;-69
2023/10/06 00:44:45;;;;;;;16.30;11.97;;;5.00;99.90;;;;;;5074355;28;20247;-69
2023/10/06 00:47:13;;;;;;;18.13;12.27;;;5.00;99.90;;;;;;5074526;28;20204;-69
2023/10/06 00:49:40;;;;;;;18.20;12.57;;;5.00;99.90;;;;;;5074064;28;20734;-69
2023/10/06 00:52:08;;;;;;;16.23;11.93;;;5.00;99.90;;;;;;5074614;28;20750;-69
2023/10/06 00:54:35;;;;;;;16.80;12.13;;;5.00;99.90;;;;;;5074616;28;20202;-69
2023/10/06 00:57:08;;;;;;;15.27;11.40;;;4.90;99.90;;;;;;5074259;28;20225;-69
2023/10/06 00:59:36;;;;;;;13.67;10.87;;;4.90;99.90;;;;;;5074122;28;20281;-69
2023/10/06 01:02:08;;;;;;;16.80;11.23;;;4.90;99.90;;;;;;5073917;28;20254;-69
2023/10/06 01:04:38;;;;;;;21.53;12.10;;;4.80;99.90;;;;;;5074077;28;20193;-69
2023/10/06 01:07:07;;;;;;;17.93;12.40;;;4.80;99.90;;;;;;5073981;28;20211;-69
2023/10/06 01:09:34;;;;;;;20.03;12.20;;;4.90;99.90;;;;;;5073813;28;20213;-69
2023/10/06 01:12:06;;;;;;;20.97;12.37;;;5.00;99.90;;;;;;5073772;28;20258;-69
2023/10/06 01:14:34;;;;;;;18.03;12.40;;;5.10;99.90;;;;;;5073765;28;20201;-69
2023/10/06 01:17:14;;;;;;;21.40;13.20;;;5.00;99.90;;;;;;5073635;28;20224;-69
2023/10/06 01:19:47;;;;;;;20.57;13.33;;;5.00;99.90;;;;;;5073609;28;20587;-69
2023/10/06 01:22:22;;;;;;;20.77;12.93;;;4.90;99.90;;;;;;5073669;28;20304;-69
2023/10/06 01:24:49;;;;;;;19.90;11.77;;;4.90;99.90;;;;;;5073016;28;20211;-69
2023/10/06 01:27:16;;;;;;;21.83;13.00;;;4.80;99.90;;;;;;5073023;28;20731;-69
2023/10/06 01:29:43;;;;;;;22.23;13.17;;;4.80;99.90;;;;;;5073431;28;20196;-69
2023/10/06 01:32:10;;;;;;;22.67;12.83;;;4.70;99.90;;;;;;5073760;28;20197;-69
2023/10/06 01:34:38;;;;;;;22.17;13.70;;;4.70;99.90;;;;;;5073368;28;20292;-69
2023/10/06 01:37:05;;;;;;;23.77;13.40;;;4.80;99.90;;;;;;5073106;28;20286;-69
2023/10/06 01:39:35;;;;;;;19.80;13.33;;;4.90;99.90;;;;;;5073271;28;20287;-70
2023/10/06 01:42:06;;;;;;;24.17;13.93;;;4.90;99.90;;;;;;5073244;28;20232;-69
2023/10/06 01:44:34;;;;;;;18.40;12.70;;;4.90;99.90;;;;;;5073471;28;20207;-69
2023/10/06 01:47:02;;;;;;;23.07;13.37;;;4.90;99.90;;;;;;5073190;28;20211;-69
2023/10/06 01:49:31;;;;;;;23.63;13.73;;;4.90;99.90;;;;;;5073194;28;20199;-69
2023/10/06 01:51:58;;;;;;;29.93;16.13;;;5.00;99.90;;;;;;5072906;28;20193;-69
2023/10/06 01:54:27;;;;;;;29.87;16.83;;;5.00;99.90;;;;;;5072901;28;20651;-69
2023/10/06 01:56:55;;;;;;;28.07;17.40;;;5.00;99.90;;;;;;5073084;28;20625;-69
2023/10/06 01:59:22;;;;;;;27.17;17.20;;;5.00;99.90;;;;;;5073060;28;20201;-69
2023/10/06 02:01:49;;;;;;;28.00;16.30;;;5.00;99.90;;;;;;5073240;28;20287;-69
2023/10/06 02:04:17;;;;;;;24.50;14.63;;;4.90;99.90;;;;;;5072902;28;20201;-69
2023/10/06 02:06:45;;;;;;;20.67;14.80;;;4.70;99.90;;;;;;5072788;28;20254;-70
2023/10/06 02:09:15;;;;;;;24.93;14.30;;;4.70;99.90;;;;;;5072969;28;20267;-69
2023/10/06 02:11:42;;;;;;;23.97;15.10;;;4.70;99.90;;;;;;5072916;28;20196;-69
2023/10/06 02:14:11;;;;;;;26.27;15.87;;;4.80;99.90;;;;;;5072855;28;20204;-69
2023/10/06 02:16:38;;;;;;;21.33;14.53;;;4.80;99.90;;;;;;5072721;28;20631;-70
2023/10/06 02:19:08;;;;;;;24.03;14.60;;;4.70;99.90;;;;;;5072606;28;20545;-69
2023/10/06 02:21:36;;;;;;;23.30;14.33;;;4.70;99.90;;;;;;5072601;28;20197;-69
2023/10/06 02:24:05;;;;;;;23.47;13.17;;;4.80;99.90;;;;;;5072779;28;20276;-69
2023/10/06 02:26:35;;;;;;;20.27;13.87;;;4.80;99.90;;;;;;5072672;28;20238;-69
2023/10/06 02:29:03;;;;;;;19.73;13.67;;;4.70;99.90;;;;;;5072463;28;20251;-69
2023/10/06 02:31:31;;;;;;;20.73;14.10;;;4.70;99.90;;;;;;5072431;28;20201;-69
2023/10/06 02:33:58;;;;;;;21.97;14.07;;;4.70;99.90;;;;;;5072506;28;20207;-69
2023/10/06 02:36:24;;;;;;;26.07;13.70;;;4.70;99.90;;;;;;5073006;28;20200;-69
2023/10/06 02:38:52;;;;;;;24.93;13.40;;;4.70;99.90;;;;;;5076679;28;20239;-69
2023/10/06 02:41:20;;;;;;;24.93;13.80;;;4.70;99.90;;;;;;5076447;28;20255;-69
2023/10/06 02:43:48;;;;;;;25.70;14.17;;;4.50;99.90;;;;;;5076515;28;20195;-69
2023/10/06 02:46:15;;;;;;;27.47;14.83;;;4.60;99.90;;;;;;5076504;28;20359;-69
2023/10/06 02:48:49;;;;;;;25.33;14.93;;;4.60;99.90;;;;;;5076504;28;20205;-69
2023/10/06 02:51:20;;;;;;;23.50;14.40;;;4.60;99.90;;;;;;5076377;28;20200;-69
2023/10/06 02:53:50;;;;;;;25.43;15.50;;;4.50;99.90;;;;;;5076590;28;20200;-69
2023/10/06 02:56:21;;;;;;;24.60;14.30;;;4.50;99.90;;;;;;5076394;28;20898;-69
2023/10/06 02:58:50;;;;;;;21.07;13.73;;;4.40;99.90;;;;;;5076238;28;20224;-69
2023/10/06 03:01:17;;;;;;;27.67;14.30;;;4.30;99.90;;;;;;5076445;28;20226;-69
2023/10/06 03:03:45;;;;;;;22.00;14.10;;;4.40;99.90;;;;;;5076401;28;20205;-68
2023/10/06 03:06:11;;;;;;;26.00;14.47;;;4.40;99.90;;;;;;5076271;28;20204;-69
2023/10/06 03:08:41;;;;;;;25.83;14.63;;;4.30;99.90;;;;;;5076134;28;20685;-69
2023/10/06 03:11:12;;;;;;;22.50;13.97;;;4.40;99.90;;;;;;5075906;28;20686;-69
2023/10/06 03:13:43;;;;;;;25.60;14.70;;;4.30;99.90;;;;;;5076234;28;20204;-69
2023/10/06 03:16:11;;;;;;;26.17;14.90;;;4.30;99.90;;;;;;5076346;28;20211;-69
2023/10/06 03:18:38;;;;;;;24.83;14.77;;;4.30;99.90;;;;;;5075991;28;20319;-69
2023/10/06 03:21:13;;;;;;;29.07;15.60;;;4.40;99.90;;;;;;5075865;28;20200;-69
2023/10/06 03:23:43;;;;;;;27.63;15.90;;;4.30;99.90;;;;;;5075752;28;20643;-68
2023/10/06 03:26:14;;;;;;;26.60;15.63;;;4.30;99.90;;;;;;5075945;28;20200;-68
2023/10/06 03:28:43;;;;;;;34.87;17.30;;;4.50;99.90;;;;;;5075813;28;20204;-68
2023/10/06 03:31:22;;;;;;;32.87;17.20;;;4.40;99.90;;;;;;5075841;28;20288;-69
2023/10/06 03:33:49;;;;;;;32.50;18.47;;;4.40;99.90;;;;;;5075698;28;20223;-70
2023/10/06 03:36:26;;;;;;;29.83;17.53;;;4.40;99.90;;;;;;5075574;28;20294;-68
2023/10/06 03:38:55;;;;;;;28.57;16.67;;;4.30;99.90;;;;;;5075680;28;20330;-68
2023/10/06 03:41:26;;;;;;;28.00;15.23;;;4.30;99.90;;;;;;5075276;28;20653;-68
2023/10/06 03:43:54;;;;;;;28.20;15.67;;;4.20;99.90;;;;;;5075463;28;20234;-69
2023/10/06 03:46:24;;;;;;;31.50;16.10;;;4.30;99.90;;;;;;5075191;28;20556;-69
2023/10/06 03:48:51;;;;;;;30.47;16.70;;;4.30;99.90;;;;;;5074837;28;20298;-69
2023/10/06 03:51:19;;;;;;;26.43;16.87;;;4.30;99.90;;;;;;5075205;28;20660;-69
2023/10/06 03:53:48;;;;;;;29.57;15.33;;;4.30;99.90;;;;;;5075444;28;20199;-69
2023/10/06 03:56:16;;;;;;;24.30;14.70;;;4.30;99.90;;;;;;5075338;28;20196;-69
2023/10/06 03:58:44;;;;;;;23.67;14.37;;;4.20;99.90;;;;;;5075113;28;20236;-70
2023/10/06 04:01:11;;;;;;;21.63;13.97;;;4.10;99.90;;;;;;5075070;28;20293;-69
2023/10/06 04:03:39;;;;;;;25.77;14.13;;;4.00;99.90;;;;;;5075281;28;20212;-68
2023/10/06 04:06:12;;;;;;;24.23;13.43;;;4.00;99.90;;;;;;5075042;28;20302;-69
2023/10/06 04:08:44;;;;;;;22.73;13.50;;;4.00;99.90;;;;;;5074737;28;20242;-69
2023/10/06 04:11:14;;;;;;;21.73;13.10;;;3.90;99.90;;;;;;5074780;28;20657;-69
2023/10/06 04:13:41;;;;;;;21.13;13.57;;;3.90;99.90;;;;;;5074703;28;20253;-69
2023/10/06 04:16:07;;;;;;;21.60;13.10;;;3.90;99.90;;;;;;5074809;28;20257;-68
2023/10/06 04:18:34;;;;;;;21.57;14.30;;;3.80;99.90;;;;;;5074866;28;20274;-69
2023/10/06 04:21:03;;;;;;;24.30;14.07;;;3.80;99.90;;;;;;5075008;28;20627;-68
2023/10/06 04:23:30;;;;;;;25.77;13.97;;;3.80;99.90;;;;;;5074872;28;20295;-69
2023/10/06 04:25:58;;;;;;;21.77;13.50;;;3.90;99.90;;;;;;5074652;28;20203;-69
2023/10/06 04:28:27;;;;;;;24.57;14.70;;;4.00;99.90;;;;;;5074886;28;20299;-70
2023/10/06 04:30:57;;;;;;;20.07;13.80;;;4.00;99.90;;;;;;5074770;28;20200;-69
2023/10/06 04:33:25;;;;;;;23.77;14.70;;;3.90;99.90;;;;;;5074647;28;20197;-69
2023/10/06 04:35:55;;;;;;;26.47;14.50;;;3.90;99.90;;;;;;5074480;28;20667;-69
2023/10/06 04:38:23;;;;;;;23.23;14.67;;;3.90;99.90;;;;;;5074369;28;20227;-69
2023/10/06 04:40:51;;;;;;;23.27;15.00;;;3.90;99.90;;;;;;5074489;28;20232;-69
2023/10/06 04:43:19;;;;;;;26.43;15.30;;;3.90;99.90;;;;;;5074802;28;20199;-68
2023/10/06 04:45:47;;;;;;;23.60;13.63;;;3.80;99.90;;;;;;5074863;28;20201;-69
2023/10/06 04:48:15;;;;;;;20.43;14.30;;;3.80;99.90;;;;;;5074485;28;20651;-69
2023/10/06 04:50:42;;;;;;;21.60;13.40;;;3.80;99.90;;;;;;5073930;28;20196;-69
2023/10/06 04:53:11;;;;;;;21.10;13.30;;;3.70;99.90;;;;;;5074276;28;20208;-68
2023/10/06 04:55:38;;;;;;;20.93;13.87;;;3.70;99.90;;;;;;5073921;28;20291;-70
2023/10/06 04:58:05;;;;;;;20.50;14.23;;;3.80;99.90;;;;;;5073978;28;20224;-69
2023/10/06 05:00:33;;;;;;;23.03;12.97;;;3.90;99.90;;;;;;5073211;28;20655;-69
2023/10/06 05:03:04;;;;;;;25.47;14.43;;;4.00;99.90;;;;;;5073877;28;20746;-69
2023/10/06 05:05:33;;;;;;;21.17;14.27;;;4.10;99.90;;;;;;5073680;28;20201;-70
2023/10/06 05:08:02;;;;;;;23.40;14.17;;;3.90;99.90;;;;;;5073550;28;20203;-70
2023/10/06 05:10:30;;;;;;;23.27;14.80;;;3.90;99.90;;;;;;5073896;28;20250;-69
2023/10/06 05:12:57;;;;;;;25.60;16.10;;;4.00;99.90;;;;;;5073806;28;20299;-70
2023/10/06 05:15:26;;;;;;;28.73;18.77;;;4.00;99.90;;;;;;5074015;28;20201;-70
2023/10/06 05:17:56;;;;;;;28.50;19.50;;;4.10;99.90;;;;;;5073531;28;20273;-70
2023/10/06 05:20:24;;;;;;;26.63;18.90;;;4.10;99.90;;;;;;5073596;28;20287;-69
2023/10/06 05:22:52;;;;;;;27.80;18.20;;;4.00;99.90;;;;;;5073683;28;20671;-69
2023/10/06 05:25:19;;;;;;;24.73;17.67;;;4.00;99.90;;;;;;5073461;28;20659;-69
2023/10/06 05:27:47;;;;;;;26.97;18.40;;;3.90;99.90;;;;;;5073557;28;20204;-70
2023/10/06 05:30:14;;;;;;;24.23;16.57;;;3.90;99.90;;;;;;5073365;28;20631;-69
2023/10/06 05:32:42;;;;;;;25.73;17.53;;;4.00;99.90;;;;;;5073282;28;20258;-69
2023/10/06 05:35:13;;;;;;;26.03;17.37;;;4.10;99.90;;;;;;5073165;28;20197;-68
2023/10/06 05:37:41;;;;;;;23.43;16.67;;;4.20;99.90;;;;;;5073316;28;20279;-69
2023/10/06 05:40:12;;;;;;;24.13;17.60;;;4.20;99.90;;;;;;5073133;28;20210;-69
2023/10/06 05:42:40;;;;;;;31.57;18.13;;;4.10;99.90;;;;;;5072947;28;20242;-69
2023/10/06 05:45:15;;;;;;;24.53;17.50;;;4.10;99.90;;;;;;5073012;28;20208;-69
2023/10/06 05:47:45;;;;;;;26.90;17.93;;;4.10;99.90;;;;;;5072778;28;20207;-70
2023/10/06 05:50:18;;;;;;;28.40;17.80;;;4.20;99.90;;;;;;5073085;28;20555;-69
2023/10/06 05:52:51;;;;;;;31.20;18.23;;;4.20;99.90;;;;;;5072859;28;20200;-69
2023/10/06 05:55:19;;;;;;;26.50;17.97;;;4.20;99.90;;;;;;5073300;28;20235;-69
2023/10/06 05:57:51;;;;;;;29.53;18.17;;;4.20;99.90;;;;;;5072912;28;20204;-69
2023/10/06 06:00:24;;;;;;;32.73;18.77;;;4.20;99.90;;;;;;5072721;28;20199;-69
2023/10/06 06:02:52;;;;;;;32.50;19.43;;;4.30;99.90;;;;;;5072810;28;20208;-69
2023/10/06 06:05:21;;;;;;;36.47;18.80;;;4.30;99.90;;;;;;5072916;28;20345;-69
2023/10/06 06:07:51;;;;;;;34.60;19.70;;;4.40;99.90;;;;;;5072906;28;20261;-69
2023/10/06 06:10:18;;;;;;;30.80;19.10;;;4.40;99.90;;;;;;5072318;28;20950;-69
2023/10/06 06:12:47;;;;;;;31.63;18.73;;;4.50;99.90;;;;;;5072827;28;20201;-69
2023/10/06 06:15:14;;;;;;;32.37;19.77;;;4.50;99.90;;;;;;5072784;28;20279;-69
2023/10/06 06:17:41;;;;;;;33.07;20.27;;;4.50;99.90;;;;;;5072485;28;20201;-69
2023/10/06 06:20:14;;;;;;;33.67;20.90;;;4.40;99.90;;;;;;5072676;28;20319;-69
2023/10/06 06:22:47;;;;;;;28.53;18.63;;;4.60;99.90;;;;;;5072492;28;20664;-69
2023/10/06 06:25:15;;;;;;;34.83;19.17;;;4.80;99.90;;;;;;5072585;28;20232;-69
2023/10/06 06:27:42;;;;;;;32.30;20.37;;;5.00;99.90;;;;;;5072568;28;20250;-68
2023/10/06 06:30:10;;;;;;;27.40;19.87;;;5.10;99.90;;;;;;5072885;28;20204;-69
2023/10/06 06:32:37;;;;;;;29.10;19.60;;;5.20;99.90;;;;;;5078144;28;20204;-69
2023/10/06 06:35:05;;;;;;;31.30;20.70;;;5.20;99.90;;;;;;5072851;28;20209;-69
2023/10/06 06:37:32;;;;;;;28.07;18.80;;;5.40;99.90;;;;;;5072508;28;20192;-69
2023/10/06 06:40:00;;;;;;;31.33;19.97;;;5.50;99.90;;;;;;5072251;28;20695;-68
2023/10/06 06:42:27;;;;;;;30.00;19.43;;;5.50;99.90;;;;;;5038077;28;20282;-68
2023/10/06 06:44:53;;;;;;;29.73;19.77;;;5.70;99.90;;;;;;5032671;28;20199;-68
2023/10/06 06:47:21;;;;;;;26.37;19.50;;;5.80;99.90;;;;;;5032523;28;20206;-68
2023/10/06 06:49:48;;;;;;;28.73;19.97;;;5.90;99.90;;;;;;5032454;28;20207;-69
2023/10/06 06:52:15;;;;;;;29.60;19.70;;;6.00;99.90;;;;;;5032237;28;20285;-69
2023/10/06 06:54:46;;;;;;;31.50;20.17;;;6.10;99.90;;;;;;5032522;28;20206;-69
2023/10/06 06:57:16;;;;;;;28.43;20.63;;;6.30;99.90;;;;;;5032266;28;20720;-69
2023/10/06 06:59:44;;;;;;;33.67;21.77;;;6.50;99.90;;;;;;5032415;28;20317;-69
2023/10/06 07:02:11;;;;;;;35.83;21.87;;;6.60;99.90;;;;;;5032359;28;20205;-69
2023/10/06 07:04:38;;;;;;;33.40;21.97;;;6.80;99.90;;;;;;5071592;28;20233;-69
2023/10/06 07:07:04;;;;;;;31.23;22.10;;;6.90;99.90;;;;;;5071812;28;20197;-69
2023/10/06 07:09:31;;;;;;;31.07;21.17;;;7.00;99.90;;;;;;5072332;28;20279;-69
2023/10/06 07:11:58;;;;;;;33.07;21.33;;;7.10;99.90;;;;;;5072518;28;20247;-69
2023/10/06 07:14:27;;;;;;;32.63;23.17;;;7.20;99.90;;;;;;5072268;28;20201;-68
2023/10/06 07:16:54;;;;;;;38.90;24.37;;;7.30;99.90;;;;;;5072037;28;20214;-70
2023/10/06 07:19:21;;;;;;;39.27;22.20;;;7.50;99.90;;;;;;5072047;28;20229;-70
2023/10/06 07:21:49;;;;;;;34.47;22.53;;;7.60;99.90;;;;;;5072228;28;20204;-69
2023/10/06 07:24:15;;;;;;;34.23;23.30;;;7.80;99.90;;;;;;5075813;28;20255;-70
2023/10/06 07:26:43;;;;;;;31.53;23.43;;;7.90;99.90;;;;;;5075626;28;20204;-69
2023/10/06 07:29:10;;;;;;;37.70;24.57;;;8.00;99.90;;;;;;5076204;28;20208;-69
2023/10/06 07:31:38;;;;;;;38.53;25.20;;;8.20;99.90;;;;;;5075606;28;20284;-69
2023/10/06 07:34:05;;;;;;;34.40;25.93;;;8.40;99.90;;;;;;5075833;28;20617;-69
2023/10/06 07:36:35;;;;;;;34.07;25.50;;;8.50;99.90;;;;;;5075776;28;20197;-69
2023/10/06 07:39:03;;;;;;;38.27;26.87;;;8.70;99.90;;;;;;5075552;28;20227;-70
2023/10/06 07:41:30;;;;;;;36.73;29.20;;;8.90;99.90;;;;;;5075314;28;20252;-69
2023/10/06 07:43:57;;;;;;;39.13;29.23;;;9.10;99.90;;;;;;5075268;28;20231;-69
2023/10/06 07:46:24;;;;;;;39.03;28.40;;;9.30;99.90;;;;;;5075368;28;20197;-69
2023/10/06 07:48:55;;;;;;;31.93;26.83;;;9.40;99.90;;;;;;5075133;28;20197;-70
2023/10/06 07:51:23;;;;;;;32.70;24.53;;;9.50;99.90;;;;;;5075400;28;20247;-70
2023/10/06 07:53:50;;;;;;;31.27;24.03;;;9.70;99.90;;;;;;5075468;28;20284;-70
2023/10/06 07:56:18;;;;;;;31.57;24.90;;;9.90;99.90;;;;;;5075412;28;20676;-69
2023/10/06 07:58:45;;;;;;;28.40;22.83;;;10.10;99.90;;;;;;5075043;28;20266;-70
2023/10/06 08:01:12;;;;;;;32.67;20.43;;;10.30;99.90;;;;;;5074836;28;20656;-70
2023/10/06 08:03:41;;;;;;;22.33;19.30;;;10.60;99.90;;;;;;5075042;28;20209;-70
2023/10/06 08:06:10;;;;;;;25.10;18.07;;;10.70;99.90;;;;;;5075030;28;20287;-70
2023/10/06 08:08:38;;;;;;;23.93;17.47;;;11.00;99.90;;;;;;5074720;28;20210;-69
2023/10/06 08:11:06;;;;;;;21.53;16.33;;;11.20;99.90;;;;;;5074846;28;20279;-70
2023/10/06 08:13:33;;;;;;;21.13;16.20;;;11.40;99.90;;;;;;5074899;28;20197;-70
2023/10/06 08:16:00;;;;;;;22.63;16.10;;;11.60;99.90;;;;;;5074818;28;20339;-69
2023/10/06 08:18:29;;;;;;;17.23;14.37;;;11.80;99.90;;;;;;5074920;28;20205;-70
2023/10/06 08:20:56;;;;;;;17.07;13.80;;;12.00;99.90;;;;;;5074740;28;20208;-69
2023/10/06 08:23:25;;;;;;;16.83;13.43;;;12.30;99.90;;;;;;5074661;28;20201;-69
2023/10/06 08:25:56;;;;;;;18.50;13.90;;;12.50;99.90;;;;;;5074604;28;20201;-70
2023/10/06 08:28:23;;;;;;;15.10;12.27;;;12.80;99.90;;;;;;5074818;28;20556;-68
2023/10/06 08:30:49;;;;;;;18.00;12.33;;;13.00;99.90;;;;;;5074517;28;20714;-68
2023/10/06 08:33:16;;;;;;;15.63;11.20;;;13.20;99.90;;;;;;5074388;28;20200;-68
2023/10/06 08:35:44;;;;;;;21.00;12.03;;;13.50;99.90;;;;;;5073498;28;20201;-67
2023/10/06 08:38:10;;;;;;;21.60;11.57;;;13.70;99.90;;;;;;5074218;28;20197;-68
2023/10/06 08:40:43;;;;;;;15.77;10.10;;;13.80;99.90;;;;;;5074202;28;20252;-69
2023/10/06 08:43:10;;;;;;;13.90;9.17;;;14.00;99.90;;;;;;5074472;28;20196;-69
2023/10/06 08:45:41;;;;;;;13.83;9.03;;;14.20;99.90;;;;;;5074251;28;20694;-69
2023/10/06 08:48:10;;;;;;;17.60;8.70;;;14.20;99.90;;;;;;5074193;28;20585;-70
2023/10/06 08:50:38;;;;;;;13.13;7.30;;;14.50;99.90;;;;;;5074426;28;20200;-69
2023/10/06 08:53:05;;;;;;;12.13;6.60;;;14.90;99.90;;;;;;5074234;28;20205;-70
2023/10/06 08:55:33;;;;;;;12.20;6.83;;;15.10;99.90;;;;;;5074462;28;20266;-69
2023/10/06 08:58:00;;;;;;;11.30;5.90;;;15.20;99.90;;;;;;5067162;28;20197;-70
2023/10/06 09:00:31;;;;;;;10.10;5.57;;;15.20;99.90;;;;;;5054247;28;20565;-70
2023/10/06 09:03:03;;;;;;;14.10;5.97;;;15.50;99.90;;;;;;5053679;28;20198;-69
2023/10/06 09:05:31;;;;;;;9.60;5.67;;;15.40;99.90;;;;;;5054808;28;20205;-69
2023/10/06 09:08:04;;;;;;;11.80;5.57;;;15.60;99.90;;;;;;5054753;28;20194;-69
2023/10/06 09:10:31;;;;;;;12.15;5.80;;;16.00;99.90;;;;;;5053699;28;20205;-69
2023/10/06 09:13:04;;;;;;;8.68;5.57;;;16.00;99.90;;;;;;5052424;28;20202;-70
2023/10/06 09:15:31;;;;;;;9.02;5.32;;;16.00;99.90;;;;;;5050046;28;20292;-69
2023/10/06 09:17:59;;;;;;;11.30;6.50;;;16.00;99.90;;;;;;5049783;28;20267;-69
2023/10/06 09:20:30;;;;;;;9.70;5.60;;;16.30;99.90;;;;;;5050011;28;20222;-69
2023/10/06 09:22:58;;;;;;;10.48;5.40;;;16.40;99.90;;;;;;5050087;28;20712;-69
2023/10/06 09:25:25;;;;;;;12.85;5.22;;;16.80;99.90;;;;;;5049810;28;20301;-69
2023/10/06 09:28:04;;;;;;;11.27;5.80;;;16.90;99.90;;;;;;5050000;28;20198;-70
2023/10/06 09:30:31;;;;;;;13.38;6.95;;;17.40;99.90;;;;;;5049628;28;20236;-69
2023/10/06 09:33:05;;;;;;;10.15;6.50;;;17.70;99.90;;;;;;5059714;28;20201;-71
2023/10/06 09:35:32;;;;;;;11.75;6.38;;;17.50;99.90;;;;;;5069785;28;20287;-71
2023/10/06 09:38:13;;;;;;;11.85;6.65;;;17.30;99.90;;;;;;5057097;28;20538;-71
2023/10/06 09:40:44;;;;;;;9.68;6.35;;;17.10;99.90;;;;;;5052644;28;20240;-72
2023/10/06 09:43:15;;;;;;;11.38;6.70;;;17.70;99.90;;;;;;5069298;28;20738;-72
2023/10/06 09:45:42;;;;;;;13.30;6.70;;;18.00;99.90;;;;;;5069400;28;20305;-72
2023/10/06 09:48:15;;;;;;;11.80;5.97;;;18.50;99.90;;;;;;5069538;28;20284;-72
2023/10/06 09:50:43;;;;;;;10.00;6.13;;;19.00;99.90;;;;;;5069660;28;20205;-71
2023/10/06 09:53:12;;;;;;;9.68;5.80;;;19.10;99.90;;;;;;5069334;28;20706;-72
2023/10/06 09:55:40;;;;;;;9.77;6.82;;;19.40;99.90;;;;;;5068924;28;20208;-71
2023/10/06 09:58:08;;;;;;;11.48;6.65;;;19.60;99.90;;;;;;5069250;28;20287;-70
2023/10/06 10:00:40;;;;;;;8.25;5.80;;;19.20;99.80;;;;;;5069533;28;20371;-72
2023/10/06 10:03:09;;;;;;;10.98;6.50;;;19.40;99.90;;;;;;5069463;28;20221;-72
2023/10/06 10:05:39;;;;;;;9.68;6.05;;;19.90;98.70;;;;;;5069295;28;20205;-72
2023/10/06 10:08:06;;;;;;;10.23;6.20;;;20.40;97.20;;;;;;5069398;28;20228;-70
2023/10/06 10:10:35;;;;;;;9.52;6.38;;;20.00;97.50;;;;;;5069431;28;20203;-71
2023/10/06 10:13:19;;;;;;;9.45;6.13;;;20.10;97.00;;;;;;5069160;28;20208;-71
2023/10/06 10:15:59;;;;;;;8.30;5.30;;;21.20;95.80;;;;;;5069086;28;20197;-71
2023/10/06 10:18:33;;;;;;;8.63;5.18;;;21.30;93.70;;;;;;5068519;28;20201;-71
2023/10/06 10:21:01;;;;;;;7.57;4.90;;;22.10;93.80;;;;;;5069392;28;20228;-71
2023/10/06 10:23:29;;;;;;;9.10;5.30;;;23.30;91.40;;;;;;5068838;28;20648;-71
2023/10/06 10:26:03;;;;;;;7.90;5.05;;;23.40;86.00;;;;;;5069282;28;20193;-70
2023/10/06 10:28:30;;;;;;;9.45;5.20;;;23.10;85.10;;;;;;5068749;28;20659;-72
2023/10/06 10:31:00;;;;;;;7.45;4.57;;;24.00;83.00;;;;;;5072068;28;20208;-70
2023/10/06 10:33:29;;;;;;;7.03;5.00;;;24.30;82.20;;;;;;5072350;28;20193;-72
2023/10/06 10:36:23;;;;;;;8.52;5.20;;;24.80;75.60;;;;;;5072537;28;20196;-71
2023/10/06 10:39:07;;;;;;;8.18;5.85;;;23.50;72.20;;;;;;5072337;28;20284;-71
2023/10/06 10:41:37;;;;;;;10.23;5.60;;;22.80;71.60;;;;;;5071969;28;20244;-71
2023/10/06 10:44:06;;;;;;;7.82;4.63;;;23.30;71.60;;;;;;5072182;28;20281;-70
2023/10/06 10:46:42;;;;;;;8.25;5.47;;;23.80;70.20;;;;;;5072078;28;20197;-71
2023/10/06 10:49:11;;;;;;;9.05;5.20;;;24.40;68.30;;;;;;5072036;28;20211;-71
2023/10/06 10:51:54;;;;;;;9.50;5.68;;;24.30;67.40;;;;;;5072336;28;20695;-69
2023/10/06 10:54:22;;;;;;;8.13;5.75;;;24.00;67.20;;;;;;5070381;28;20204;-70
2023/10/06 10:56:51;;;;;;;8.63;5.35;;;23.90;67.30;;;;;;5070677;28;20656;-69
2023/10/06 10:59:18;;;;;;;7.40;4.93;;;24.40;64.40;;;;;;5092965;28;20663;-70
2023/10/06 11:01:51;;;;;;;9.52;5.78;;;23.90;64.70;;;;;;5090253;28;20239;-69
2023/10/06 11:04:25;;;;;;;9.43;5.28;;;24.20;65.90;;;;;;5075917;28;20201;-70
2023/10/06 11:06:55;;;;;;;9.77;5.18;;;24.50;64.40;;;;;;5075928;28;20239;-67
2023/10/06 11:09:28;;;;;;;9.82;5.53;;;25.10;64.10;;;;;;5076003;28;20611;-68
2023/10/06 11:11:56;;;;;;;10.65;6.18;;;24.50;61.20;;;;;;5076065;28;20197;-67
2023/10/06 11:14:25;;;;;;;9.38;5.95;;;22.90;63.80;;;;;;5075921;28;20202;-68
2023/10/06 11:16:59;;;;;;;7.18;4.90;;;23.10;63.30;;;;;;5075390;28;20201;-68
2023/10/06 11:19:26;;;;;;;8.13;5.22;;;23.70;64.90;;;;;;5075949;28;20559;-69
2023/10/06 11:21:53;;;;;;;9.57;5.22;;;24.80;63.80;;;;;;5076037;28;20216;-72
2023/10/06 11:24:26;;;;;;;10.07;5.05;;;25.90;59.70;;;;;;5075665;28;20201;-69
2023/10/06 11:26:53;;;;;;;9.02;5.40;;;27.10;57.80;;;;;;5082982;28;20200;-69
2023/10/06 11:29:32;;;;;;;8.98;5.72;;;27.00;56.10;;;;;;5095686;28;20707;-69
2023/10/06 11:32:01;;;;;;;9.57;5.40;;;27.10;56.40;;;;;;5086405;28;20556;-70
2023/10/06 11:34:28;;;;;;;9.13;5.57;;;26.50;55.90;;;;;;5075551;28;20196;-69
2023/10/06 11:36:57;;;;;;;7.88;5.07;;;26.10;53.80;;;;;;5075245;28;20640;-71
2023/10/06 11:39:29;;;;;;;8.57;5.10;;;26.70;53.80;;;;;;5075170;28;20288;-70
2023/10/06 11:42:30;;;;;;;9.93;6.10;;;26.50;54.10;;;;;;5074787;28;20236;-69
2023/10/06 11:44:59;;;;;;;9.63;5.68;;;25.60;53.10;;;;;;5075710;28;20287;-69
2023/10/06 11:47:41;;;;;;;8.35;5.28;;;26.10;53.40;;;;;;5080993;28;20633;-71
2023/10/06 11:50:19;;;;;;;10.30;6.20;;;26.10;52.20;;;;;;5074704;28;20331;-70
2023/10/06 11:52:46;;;;;;;8.68;6.07;;;27.10;52.20;;;;;;5074596;28;20193;-70
2023/10/06 11:55:26;;;;;;;11.05;5.63;;;28.00;49.60;;;;;;5073639;28;20327;-70
2023/10/06 11:57:54;;;;;;;8.48;5.57;;;27.90;50.30;;;;;;5071339;28;20274;-70
2023/10/06 12:00:34;;;;;;;11.25;5.50;;;28.50;48.00;;;;;;5070859;28;20696;-70
2023/10/06 12:03:03;;;;;;;9.40;5.45;;;28.50;47.20;;;;;;5071276;28;20203;-70
2023/10/06 12:05:30;;;;;;;8.63;6.50;;;27.70;46.90;;;;;;5071491;28;20227;-70
2023/10/06 12:08:03;;;;;;;7.85;5.45;;;28.80;45.20;;;;;;5070846;28;20197;-71
2023/10/06 12:10:32;;;;;;;8.93;5.72;;;30.30;43.30;;;;;;5071262;28;20204;-70
2023/10/06 12:12:59;;;;;;;8.70;6.80;;;30.10;41.30;;;;;;5069537;28;20663;-71
2023/10/06 12:15:29;;;;;;;10.23;6.97;;;28.40;40.90;;;;;;5074379;28;20656;-75
2023/10/06 12:17:56;;;;;;;7.82;5.60;;;29.30;40.80;;;;;;5073601;28;20232;-70
2023/10/06 12:20:24;;;;;;;8.52;6.10;;;28.10;42.70;;;;;;5074929;28;20220;-70
2023/10/06 12:22:53;;;;;;;9.70;5.88;;;28.20;42.80;;;;;;5075019;28;20288;-70
2023/10/06 12:25:23;;;;;;;8.35;5.90;;;29.00;43.40;;;;;;5074646;28;20211;-70
2023/10/06 12:27:50;;;;;;;9.73;6.45;;;29.90;40.50;;;;;;5074627;28;20648;-70
2023/10/06 12:30:18;;;;;;;9.77;5.60;;;28.90;42.20;;;;;;5074906;28;20201;-70
2023/10/06 12:32:47;;;;;;;11.52;6.13;;;30.20;41.20;;;;;;5074793;28;20201;-70
2023/10/06 12:35:18;;;;;;;8.18;5.88;;;32.00;39.20;;;;;;5074787;28;20220;-70
2023/10/06 12:37:47;;;;;;;6.65;5.95;;;32.40;37.80;;;;;;5074416;28;20204;-72
2023/10/06 12:40:14;;;;;;;9.07;6.20;;;32.30;37.10;;;;;;5074390;28;20216;-70
2023/10/06 12:42:42;;;;;;;8.25;5.88;;;31.40;36.30;;;;;;5074586;28;20286;-72
2023/10/06 12:45:12;;;;;;;9.35;5.53;;;28.60;39.10;;;;;;5074405;28;20533;-69
2023/10/06 12:47:39;;;;;;;7.30;5.45;;;30.00;39.90;;;;;;5074508;28;20200;-70
2023/10/06 12:50:08;;;;;;;7.47;5.43;;;31.20;38.10;;;;;;5074393;28;20204;-71